Time;durP1;ratioP1;P1;durP2;ratioP2;P2;SDS_P1;SDS_P2;PMS_P1;PMS_P2;Temp;Humidity;BMP_temperature;BMP_pressure;BME280_temperature;BME280_humidity;BME280_pressure;Samples;Min_cycle;Max_cycle;Signal;HPM_P1;HPM_P2
2023/03/31 00:01:35;;;;;;;;;55.00;44.25;;;;;14.39;38.77;99305.50;5075880;28;8881;-79
2023/03/31 00:04:04;;;;;;;;;51.25;42.00;;;;;14.39;39.27;99302.00;5075770;28;9619;-78
2023/03/31 00:06:36;;;;;;;;;48.75;42.25;;;;;14.41;38.65;99300.16;5060086;28;8936;-76
2023/03/31 00:09:08;;;;;;;;;52.25;42.00;;;;;14.42;38.91;99299.25;5023052;28;8841;-79
2023/03/31 00:11:39;;;;;;;;;47.50;41.75;;;;;14.43;39.08;99296.53;5061683;28;8860;-78
2023/03/31 00:14:09;;;;;;;;;55.25;45.00;;;;;14.40;39.83;99294.00;5055218;28;8897;-80
2023/03/31 00:16:39;;;;;;;;;47.75;38.50;;;;;14.42;39.50;99300.09;5052867;28;8877;-80
2023/03/31 00:19:16;;;;;;;;;46.75;38.50;;;;;14.42;39.79;99302.75;5034195;28;8854;-79
2023/03/31 00:21:47;;;;;;;;;50.00;42.25;;;;;14.40;39.55;99301.94;5051377;28;8838;-78
2023/03/31 00:24:16;;;;;;;;;53.25;41.50;;;;;14.42;39.27;99297.44;5069306;28;8844;-80
2023/03/31 00:26:45;;;;;;;;;41.50;36.50;;;;;14.40;38.90;99290.50;5068726;28;8894;-76
2023/03/31 00:29:14;;;;;;;;;33.50;32.00;;;;;14.33;38.58;99289.03;5069055;28;8860;-78
2023/03/31 00:31:44;;;;;;;;;40.50;35.50;;;;;14.29;39.45;99291.78;5068338;28;8840;-79
2023/03/31 00:34:13;;;;;;;;;43.75;38.00;;;;;14.28;38.62;99284.81;5019096;28;8879;-78
2023/03/31 00:36:46;;;;;;;;;38.50;34.25;;;;;14.28;38.68;99284.81;5019080;28;9597;-79
2023/03/31 00:39:17;;;;;;;;;33.50;32.00;;;;;13.89;39.26;99290.72;5050635;28;8868;-79
2023/03/31 00:41:46;;;;;;;;;37.00;33.00;;;;;13.90;39.13;99283.66;5051329;28;8882;-80
2023/03/31 00:44:21;;;;;;;;;28.00;26.25;;;;;13.92;39.49;99281.81;5069016;28;8852;-79
2023/03/31 00:46:57;;;;;;;;;28.75;27.50;;;;;13.87;39.41;99282.00;5067337;28;9468;-79
2023/03/31 00:49:30;;;;;;;;;37.00;28.75;;;;;13.93;39.41;99275.63;5082487;28;8841;-79
2023/03/31 00:52:04;;;;;;;;;31.75;30.25;;;;;13.71;40.27;99272.91;5064763;28;9023;-79
2023/03/31 00:54:35;;;;;;;;;31.75;31.75;;;;;13.83;39.86;99267.19;5049652;28;8849;-79
2023/03/31 00:57:06;;;;;;;;;29.75;27.00;;;;;13.50;40.57;99264.03;5078778;28;8858;-78
2023/03/31 00:59:40;;;;;;;;;24.00;23.40;;;;;12.97;41.60;99267.69;5084774;28;8850;-79
2023/03/31 01:02:13;;;;;;;;;23.00;22.20;;;;;13.12;41.89;99266.28;5057923;28;8946;-78
2023/03/31 01:04:49;;;;;;;;;21.80;20.80;;;;;13.05;41.94;99262.16;5049945;28;8849;-78
2023/03/31 01:07:24;;;;;;;;;18.20;17.40;;;;;13.04;41.76;99263.09;5049661;28;8896;-77
2023/03/31 01:09:58;;;;;;;;;22.60;20.40;;;;;12.98;42.41;99269.44;5081823;28;8849;-78
2023/03/31 01:12:28;;;;;;;;;23.60;19.60;;;;;13.16;42.24;99265.25;5033565;28;8853;-79
2023/03/31 01:14:57;;;;;;;;;18.20;18.20;;;;;13.17;42.15;99267.00;5065105;28;8830;-78
2023/03/31 01:17:28;;;;;;;;;18.60;17.80;;;;;13.09;42.47;99264.63;5061727;28;8992;-80
2023/03/31 01:20:13;;;;;;;;;23.80;21.60;;;;;12.86;43.12;99257.53;5052268;28;8834;-79
2023/03/31 01:23:21;;;;;;;;;17.40;15.80;;;;;13.28;42.21;99256.91;5080457;28;8850;-78
2023/03/31 01:26:30;;;;;;;;;18.40;17.00;;;;;13.38;42.14;99253.94;5030934;28;9018;-83
2023/03/31 01:29:10;;;;;;;;;9.40;8.40;;;;;12.84;43.08;99253.19;5006320;28;8900;-81
2023/03/31 01:32:18;;;;;;;;;13.20;12.40;;;;;12.87;43.72;99250.47;4993326;28;9022;-80
2023/03/31 01:35:19;;;;;;;;;16.00;14.00;;;;;12.90;42.97;99248.59;4913390;29;8884;-79
2023/03/31 01:38:25;;;;;;;;;12.80;11.60;;;;;13.05;42.70;99251.59;4944730;28;8882;-80
2023/03/31 01:41:12;;;;;;;;;13.20;11.40;;;;;12.77;43.03;99252.56;4932573;28;9651;-79
2023/03/31 01:43:49;;;;;;;;;12.00;12.00;;;;;12.58;43.09;99248.81;4948828;28;8962;-79
2023/03/31 01:46:27;;;;;;;;;11.20;10.80;;;;;12.43;43.76;99251.06;4947854;28;8976;-79
2023/03/31 01:49:07;;;;;;;;;9.40;7.20;;;;;12.46;43.93;99263.25;4932517;28;8880;-79
2023/03/31 01:51:46;;;;;;;;;10.00;7.00;;;;;12.13;45.21;99256.41;4933971;28;8845;-79
2023/03/31 01:54:23;;;;;;;;;8.40;7.00;;;;;11.42;47.24;99254.19;4948148;28;8881;-79
2023/03/31 01:57:01;;;;;;;;;10.00;7.40;;;;;11.69;46.82;99247.22;4901519;28;8874;-79
2023/03/31 01:59:37;;;;;;;;;7.40;7.40;;;;;11.81;46.46;99240.75;4932980;28;8967;-79
2023/03/31 02:02:10;;;;;;;;;6.60;6.40;;;;;11.86;46.03;99231.81;4900187;28;8909;-79
2023/03/31 02:04:43;;;;;;;;;10.60;8.00;;;;;12.31;45.02;99233.00;4951068;28;8907;-79
2023/03/31 02:07:19;;;;;;;;;5.20;5.00;;;;;11.69;46.55;99234.06;5003969;28;8872;-80
2023/03/31 02:09:53;;;;;;;;;4.40;4.00;;;;;12.11;44.87;99226.63;5027487;28;8860;-78
2023/03/31 02:12:28;;;;;;;;;3.60;3.60;;;;;11.91;45.94;99229.03;5083588;28;8891;-80
2023/03/31 02:15:00;;;;;;;;;3.80;3.80;;;;;12.00;45.14;99217.34;5071039;28;8848;-79
2023/03/31 02:17:32;;;;;;;;;5.00;5.00;;;;;11.97;45.35;99223.56;5087851;28;8944;-82
2023/03/31 02:20:08;;;;;;;;;5.20;4.60;;;;;12.10;45.13;99221.41;5087703;28;8936;-80
2023/03/31 02:22:42;;;;;;;;;3.00;3.00;;;;;12.25;44.95;99220.03;5122213;27;8906;-78
2023/03/31 02:25:16;;;;;;;;;3.20;3.20;;;;;12.61;43.48;99222.34;5090376;28;8877;-79
2023/03/31 02:27:49;;;;;;;;;4.20;4.20;;;;;12.72;43.31;99213.13;5066794;28;8854;-79
2023/03/31 02:30:19;;;;;;;;;3.60;3.60;;;;;12.14;44.35;99215.09;5032724;28;8858;-79
2023/03/31 02:32:47;;;;;;;;;1.40;1.40;;;;;12.63;43.16;99215.25;5049885;28;8951;-79
2023/03/31 02:35:21;;;;;;;;;4.80;4.80;;;;;12.60;43.28;99216.22;5043356;28;8844;-78
2023/03/31 02:37:51;;;;;;;;;3.60;3.40;;;;;12.55;43.41;99210.22;5103585;28;8851;-79
2023/03/31 02:40:26;;;;;;;;;3.80;3.80;;;;;12.33;43.76;99218.00;5114327;27;8850;-80
2023/03/31 02:42:57;;;;;;;;;4.20;4.00;;;;;12.54;43.75;99219.03;5046339;28;8878;-79
2023/03/31 02:45:45;;;;;;;;;3.00;3.00;;;;;12.33;44.34;99221.53;4999510;28;8822;-78
2023/03/31 02:48:18;;;;;;;;;2.20;2.20;;;;;12.14;44.72;99210.72;5048426;28;8865;-78
2023/03/31 02:51:30;;;;;;;;;4.00;3.60;;;;;11.66;46.17;99218.38;5064210;28;8947;-79
2023/03/31 02:54:20;;;;;;;;;2.40;2.40;;;;;11.28;46.58;99204.59;4986469;28;8877;-79
2023/03/31 02:57:12;;;;;;;;;4.60;4.00;;;;;11.61;46.43;99207.97;4970128;28;8841;-79
2023/03/31 02:59:52;;;;;;;;;5.20;3.60;;;;;11.49;45.92;99208.34;4986709;28;8869;-80
2023/03/31 03:02:35;;;;;;;;;6.00;3.60;;;;;11.26;47.44;99220.41;4924152;28;8868;-79
2023/03/31 03:05:19;;;;;;;;;6.40;4.20;;;;;11.10;47.72;99225.25;4988039;28;8868;-79
2023/03/31 03:08:19;;;;;;;;;2.40;2.40;;;;;10.69;48.78;99226.34;4965489;28;9357;-79
2023/03/31 03:11:02;;;;;;;;;5.60;4.40;;;;;10.78;49.17;99236.66;4975674;28;8883;-78
2023/03/31 03:13:36;;;;;;;;;4.80;4.20;;;;;10.64;49.36;99230.88;4993359;28;8855;-80
2023/03/31 03:16:17;;;;;;;;;3.20;3.20;;;;;10.72;49.98;99223.66;4991305;28;8854;-79
2023/03/31 03:18:57;;;;;;;;;5.20;4.20;;;;;10.14;51.90;99232.13;5006385;28;8965;-79
2023/03/31 03:21:26;;;;;;;;;4.20;3.60;;;;;10.50;51.28;99225.97;4999364;28;8878;-78
2023/03/31 03:23:55;;;;;;;;;4.20;4.20;;;;;10.79;51.93;99219.97;4985827;28;8894;-79
2023/03/31 03:26:26;;;;;;;;;5.00;4.40;;;;;10.66;52.80;99221.19;4969094;28;8975;-79
2023/03/31 03:28:57;;;;;;;;;14.20;10.20;;;;;10.34;54.77;99213.22;5004556;28;8831;-77
2023/03/31 03:31:27;;;;;;;;;4.60;3.20;;;;;9.99;55.22;99228.09;5100162;28;8855;-77
2023/03/31 03:33:56;;;;;;;;;16.80;15.00;;;;;10.19;54.24;99227.59;5067969;28;9096;-79
2023/03/31 03:36:25;;;;;;;;;1.00;1.00;;;;;10.22;54.45;99224.06;5067918;28;8882;-78
2023/03/31 03:38:54;;;;;;;;;4.40;3.00;;;;;10.49;53.38;99224.25;5067579;28;8854;-79
2023/03/31 03:41:22;;;;;;;;;7.20;4.80;;;;;10.42;53.24;99228.78;5071091;28;8989;-79
2023/03/31 03:43:51;;;;;;;;;8.40;8.40;;;;;10.77;52.25;99216.53;5071278;28;8885;-80
2023/03/31 03:46:20;;;;;;;;;4.40;4.00;;;;;10.56;51.89;99223.19;5071440;28;8850;-80
2023/03/31 03:48:50;;;;;;;;;3.40;3.40;;;;;10.48;52.66;99222.50;5071109;28;8850;-79
2023/03/31 03:51:19;;;;;;;;;5.00;5.00;;;;;10.64;52.14;99220.38;5069862;28;8866;-79
2023/03/31 03:53:48;;;;;;;;;3.80;3.40;;;;;10.83;51.24;99207.63;5070013;28;9713;-78
2023/03/31 03:56:16;;;;;;;;;10.00;6.40;;;;;11.37;49.96;99212.22;5071814;28;8830;-81
2023/03/31 03:58:45;;;;;;;;;6.60;6.40;;;;;11.29;49.63;99201.91;5080385;28;9577;-78
2023/03/31 04:01:15;;;;;;;;;3.00;3.00;;;;;11.63;48.88;99200.03;5072872;28;8868;-81
2023/03/31 04:03:44;;;;;;;;;3.80;3.60;;;;;11.87;48.22;99203.69;5090339;28;8840;-79
2023/03/31 04:06:14;;;;;;;;;5.00;4.80;;;;;11.97;48.18;99205.13;5071943;28;8846;-79
2023/03/31 04:08:43;;;;;;;;;4.00;3.00;;;;;11.93;48.10;99204.34;5069755;28;8842;-80
2023/03/31 04:11:15;;;;;;;;;4.40;4.40;;;;;11.84;48.51;99206.41;5057972;28;8844;-80
2023/03/31 04:13:47;;;;;;;;;7.60;7.60;;;;;12.25;47.68;99189.28;5086620;28;8840;-79
2023/03/31 04:16:16;;;;;;;;;11.00;11.00;;;;;12.38;46.92;99189.72;5090788;28;8963;-79
2023/03/31 04:18:45;;;;;;;;;5.60;5.60;;;;;12.23;47.32;99195.50;5105299;28;8879;-79
2023/03/31 04:21:21;;;;;;;;;4.80;4.80;;;;;12.36;46.60;99175.72;5080103;28;8846;-79
2023/03/31 04:23:57;;;;;;;;;4.40;4.40;;;;;12.00;47.77;99185.75;5088846;28;8851;-78
2023/03/31 04:26:37;;;;;;;;;7.60;7.60;;;;;12.18;47.19;99189.53;5076074;28;8923;-80
2023/03/31 04:29:07;;;;;;;;;8.20;6.40;;;;;12.22;47.40;99183.22;5089704;28;8846;-80
2023/03/31 04:31:41;;;;;;;;;8.40;5.60;;;;;12.46;46.57;99171.84;5099693;28;9666;-80
2023/03/31 04:34:13;;;;;;;;;7.40;7.40;;;;;12.44;46.71;99181.59;5099591;28;8859;-80
2023/03/31 04:36:46;;;;;;;;;18.00;17.00;;;;;12.57;46.68;99181.19;5081078;28;8861;-80
2023/03/31 04:39:23;;;;;;;;;16.80;16.80;;;;;12.66;46.18;99178.22;5080083;28;8914;-79
2023/03/31 04:41:51;;;;;;;;;9.80;8.00;;;;;12.78;45.97;99172.50;5074839;28;8854;-80
2023/03/31 04:44:20;;;;;;;;;33.50;32.50;;;;;12.89;45.64;99169.50;5074521;28;9619;-79
2023/03/31 04:46:49;;;;;;;;;45.00;36.25;;;;;12.79;45.61;99171.59;5076809;28;8986;-79
2023/03/31 04:49:18;;;;;;;;;19.00;18.00;;;;;12.95;45.63;99171.91;5091234;28;8854;-77
2023/03/31 04:51:48;;;;;;;;;9.40;9.40;;;;;12.37;46.79;99169.53;5058281;28;8842;-79
2023/03/31 04:54:17;;;;;;;;;9.20;8.00;;;;;12.72;46.69;99170.09;5077965;28;8831;-78
2023/03/31 04:56:46;;;;;;;;;9.60;9.60;;;;;12.90;46.71;99174.75;5075252;28;8855;-79
2023/03/31 04:59:15;;;;;;;;;7.40;5.40;;;;;12.98;47.02;99174.44;5054368;28;8877;-79
2023/03/31 05:01:44;;;;;;;;;7.80;6.80;;;;;12.78;46.99;99175.13;5074362;28;8866;-80
2023/03/31 05:04:14;;;;;;;;;8.60;7.40;;;;;12.96;47.02;99167.50;5071465;28;8990;-78
2023/03/31 05:06:42;;;;;;;;;9.00;8.60;;;;;13.12;47.04;99171.28;5071003;28;8964;-80
2023/03/31 05:09:13;;;;;;;;;10.20;10.00;;;;;12.95;46.53;99169.28;5070703;28;8834;-81
2023/03/31 05:11:42;;;;;;;;;12.20;7.80;;;;;13.12;46.61;99166.88;5071107;28;9576;-79
2023/03/31 05:14:11;;;;;;;;;10.00;9.40;;;;;13.21;46.74;99168.31;5072062;28;9025;-79
2023/03/31 05:16:40;;;;;;;;;13.20;11.20;;;;;12.32;47.58;99168.84;5098777;28;9613;-74
2023/03/31 05:19:09;;;;;;;;;9.40;9.00;;;;;12.73;47.18;99166.50;5085661;28;9097;-77
2023/03/31 05:21:38;;;;;;;;;12.40;10.60;;;;;12.99;46.58;99157.69;5053557;28;8869;-76
2023/03/31 05:24:07;;;;;;;;;9.20;9.20;;;;;13.13;46.37;99154.56;5088383;28;8830;-77
2023/03/31 05:26:38;;;;;;;;;6.00;6.00;;;;;13.27;46.27;99154.03;5105320;28;8838;-73
2023/03/31 05:29:07;;;;;;;;;11.60;9.60;;;;;13.38;46.26;99150.97;5070599;28;8841;-76
2023/03/31 05:31:36;;;;;;;;;14.20;13.80;;;;;13.45;46.13;99153.31;5090490;28;8982;-74
2023/03/31 05:34:05;;;;;;;;;12.80;12.60;;;;;13.57;45.49;99144.03;5068278;28;8938;-74
2023/03/31 05:36:34;;;;;;;;;12.60;10.00;;;;;13.64;45.68;99144.66;5073724;28;8878;-75
2023/03/31 05:39:03;;;;;;;;;10.20;9.60;;;;;13.37;45.88;99150.09;5084981;28;8846;-76
2023/03/31 05:41:32;;;;;;;;;12.80;12.80;;;;;13.67;45.03;99145.38;5084893;28;8865;-75
2023/03/31 05:44:02;;;;;;;;;12.00;11.40;;;;;13.84;44.51;99136.81;5049272;28;8841;-74
2023/03/31 05:46:31;;;;;;;;;11.40;9.20;;;;;13.96;44.27;99134.56;5065393;28;8914;-73
2023/03/31 05:49:01;;;;;;;;;10.60;10.60;;;;;14.03;43.78;99139.53;5062794;28;8845;-76
2023/03/31 05:51:29;;;;;;;;;6.60;5.00;;;;;14.15;43.69;99124.09;5093533;28;8851;-76
2023/03/31 05:53:58;;;;;;;;;8.80;8.80;;;;;14.19;43.16;99123.06;5088178;28;9017;-75
2023/03/31 05:56:27;;;;;;;;;10.00;8.40;;;;;14.29;43.27;99127.88;5063224;28;8852;-74
2023/03/31 05:58:56;;;;;;;;;10.60;10.00;;;;;14.50;42.83;99121.72;5028881;28;8902;-72
2023/03/31 06:01:26;;;;;;;;;10.20;10.20;;;;;14.62;42.83;99122.06;5065045;28;8872;-80
2023/03/31 06:03:57;;;;;;;;;11.20;11.00;;;;;14.78;41.84;99113.44;5023359;28;8956;-80
2023/03/31 06:06:26;;;;;;;;;11.60;11.00;;;;;14.74;41.95;99101.28;5016428;28;8955;-79
2023/03/31 06:08:55;;;;;;;;;9.40;9.40;;;;;15.01;41.70;99102.66;5025320;28;8998;-77
2023/03/31 06:11:24;;;;;;;;;11.20;11.00;;;;;15.16;40.84;99102.88;5029506;28;8882;-80
2023/03/31 06:13:53;;;;;;;;;10.60;10.60;;;;;15.24;40.91;99096.31;5042779;28;8866;-81
2023/03/31 06:16:21;;;;;;;;;16.80;16.80;;;;;15.17;40.83;99100.16;5026331;28;8866;-83
2023/03/31 06:18:52;;;;;;;;;13.80;12.60;;;;;15.33;41.25;99102.09;5026403;28;8834;-81
2023/03/31 06:21:20;;;;;;;;;13.00;9.20;;;;;15.47;41.05;99106.72;5006321;28;8965;-81
2023/03/31 06:23:53;;;;;;;;;12.80;12.80;;;;;15.57;40.04;99106.19;5006680;28;8909;-80
2023/03/31 06:26:22;;;;;;;;;13.40;12.80;;;;;15.66;40.70;99099.59;5033404;28;9001;-83
2023/03/31 06:28:52;;;;;;;;;14.20;14.00;;;;;15.78;40.23;99099.00;5032173;28;8845;-81
2023/03/31 06:31:23;;;;;;;;;15.00;11.80;;;;;15.93;39.22;99105.34;5029406;28;8899;-80
2023/03/31 06:33:53;;;;;;;;;10.60;10.60;;;;;16.00;37.88;99105.88;5061996;28;8877;-82
2023/03/31 06:36:22;;;;;;;;;10.00;10.00;;;;;15.82;37.90;99105.03;5045635;28;9728;-81
2023/03/31 06:38:52;;;;;;;;;9.40;9.00;;;;;15.94;38.29;99104.41;5080925;28;8880;-83
2023/03/31 06:41:21;;;;;;;;;12.40;9.80;;;;;16.08;38.28;99105.50;5067771;28;8857;-79
2023/03/31 06:43:50;;;;;;;;;8.80;8.60;;;;;16.15;37.05;99105.13;5068296;28;8850;-82
2023/03/31 06:46:23;;;;;;;;;7.20;7.20;;;;;16.20;36.49;99104.88;5066490;28;8924;-81
2023/03/31 06:48:54;;;;;;;;;10.00;7.80;;;;;16.32;36.43;99106.03;5048009;28;8962;-80
2023/03/31 06:51:24;;;;;;;;;10.20;10.20;;;;;15.83;36.02;99097.00;5088905;28;8853;-84
2023/03/31 06:53:56;;;;;;;;;8.20;8.20;;;;;16.15;36.05;99109.56;5041707;28;8942;-84
2023/03/31 06:56:27;;;;;;;;;8.00;8.00;;;;;15.95;36.38;99113.22;5049037;28;8861;-85
2023/03/31 06:58:56;;;;;;;;;11.40;11.40;;;;;16.16;35.87;99105.97;5033786;28;8957;-85
2023/03/31 07:01:25;;;;;;;;;11.80;9.60;;;;;16.26;34.97;99109.84;5063296;28;8883;-84
2023/03/31 07:03:55;;;;;;;;;9.20;9.20;;;;;15.94;36.00;99122.94;5054985;28;8874;-80
2023/03/31 07:06:24;;;;;;;;;8.80;8.80;;;;;16.17;35.59;99115.63;5063211;28;8876;-80
2023/03/31 07:08:53;;;;;;;;;10.60;9.00;;;;;16.27;34.95;99113.38;5067610;28;8857;-80
2023/03/31 07:11:22;;;;;;;;;9.00;8.60;;;;;16.42;34.80;99113.44;5088173;28;8983;-82
2023/03/31 07:13:51;;;;;;;;;8.20;8.20;;;;;16.50;34.09;99115.72;4953422;28;9685;-80
2023/03/31 07:16:22;;;;;;;;;6.00;6.00;;;;;16.55;33.44;99119.00;4956713;28;8893;-81
2023/03/31 07:18:53;;;;;;;;;9.60;8.80;;;;;16.18;34.20;99120.00;4972038;28;8886;-81
2023/03/31 07:21:23;;;;;;;;;11.00;9.20;;;;;16.57;33.86;99127.75;4951980;28;8892;-79
2023/03/31 07:23:52;;;;;;;;;9.80;8.00;;;;;16.52;34.49;99123.59;4954289;28;8850;-80
2023/03/31 07:26:21;;;;;;;;;9.00;9.00;;;;;16.17;33.76;99116.50;4953920;28;8897;-80
2023/03/31 07:28:50;;;;;;;;;7.40;7.00;;;;;16.24;33.74;99125.00;4954355;28;8960;-80
2023/03/31 07:31:19;;;;;;;;;11.00;9.20;;;;;15.71;34.95;99129.41;4985372;28;8873;-80
2023/03/31 07:33:48;;;;;;;;;7.20;7.20;;;;;15.56;34.69;99124.81;4993082;28;8885;-80
2023/03/31 07:36:17;;;;;;;;;8.20;8.20;;;;;14.20;37.25;99136.19;5029065;28;9771;-80
2023/03/31 07:38:48;;;;;;;;;7.20;6.40;;;;;14.42;36.93;99133.50;5031507;28;9023;-81
2023/03/31 07:41:19;;;;;;;;;2.60;2.00;;;;;13.86;37.81;99140.25;5015185;28;8936;-81
2023/03/31 07:43:49;;;;;;;;;7.60;7.60;;;;;14.40;37.54;99139.78;5028319;28;8883;-82
2023/03/31 07:46:20;;;;;;;;;5.80;5.60;;;;;14.11;38.05;99133.97;5087538;28;8868;-80
2023/03/31 07:48:50;;;;;;;;;5.00;4.40;;;;;13.39;39.02;99140.34;5070100;28;8882;-80
2023/03/31 07:51:21;;;;;;;;;13.20;9.80;;;;;14.11;37.95;99130.44;5070845;28;8879;-79
2023/03/31 07:53:52;;;;;;;;;5.00;5.00;;;;;14.31;37.76;99124.31;5091249;28;8859;-80
2023/03/31 07:56:23;;;;;;;;;7.40;7.40;;;;;14.50;37.06;99130.50;5091166;28;8970;-84
2023/03/31 07:58:53;;;;;;;;;8.00;7.80;;;;;13.86;38.64;99129.66;5087354;28;8949;-81
2023/03/31 08:01:27;;;;;;;;;8.80;7.00;;;;;14.58;37.49;99123.09;5076072;28;8866;-81
2023/03/31 08:04:17;;;;;;;;;9.40;6.40;;;;;15.17;36.77;99128.41;5092279;28;8856;-83
2023/03/31 08:06:46;;;;;;;;;7.80;7.20;;;;;14.79;37.34;99123.97;5036210;28;8846;-84
2023/03/31 08:09:17;;;;;;;;;10.60;9.00;;;;;14.55;38.12;99117.94;5068614;28;8909;-82
2023/03/31 08:11:46;;;;;;;;;9.80;8.20;;;;;15.25;37.42;99113.91;5067850;28;8959;-83
2023/03/31 08:14:15;;;;;;;;;8.60;7.80;;;;;15.56;36.55;99116.88;5048040;28;8870;-84
2023/03/31 08:16:56;;;;;;;;;9.80;8.40;;;;;14.92;36.90;99110.16;5015545;28;8892;-84
2023/03/31 08:19:26;;;;;;;;;10.00;9.20;;;;;15.39;36.89;99109.72;5015003;28;9467;-82
2023/03/31 08:21:54;;;;;;;;;8.40;7.80;;;;;15.52;36.24;99108.19;5036316;28;8866;-82
2023/03/31 08:24:25;;;;;;;;;7.60;7.00;;;;;15.56;36.17;99098.31;5011088;28;8940;-82
2023/03/31 08:26:53;;;;;;;;;9.00;7.20;;;;;15.56;36.07;99100.97;5096682;28;8854;-80
2023/03/31 08:29:22;;;;;;;;;6.00;6.00;;;;;15.87;34.70;99094.19;5080755;28;8870;-83
2023/03/31 08:31:51;;;;;;;;;7.40;6.00;;;;;15.99;34.74;99085.63;5068189;28;8867;-76
2023/03/31 08:34:20;;;;;;;;;7.20;6.00;;;;;15.87;34.38;99084.47;5043183;28;8918;-81
2023/03/31 08:36:49;;;;;;;;;6.20;6.20;;;;;15.15;35.78;99079.97;5053931;28;8871;-82
2023/03/31 08:39:18;;;;;;;;;10.60;10.00;;;;;15.30;35.66;99083.69;5069682;28;9060;-83
2023/03/31 08:41:58;;;;;;;;;6.20;5.60;;;;;14.82;36.41;99073.53;5064755;28;8935;-82
2023/03/31 08:44:35;;;;;;;;;9.20;7.80;;;;;15.09;35.70;99075.81;5093273;28;8857;-82
2023/03/31 08:47:07;;;;;;;;;8.60;7.40;;;;;14.91;36.29;99068.78;5091539;28;8970;-83
2023/03/31 08:49:42;;;;;;;;;4.60;4.60;;;;;14.61;36.18;99063.91;5089924;28;8859;-85
2023/03/31 08:52:15;;;;;;;;;5.60;5.60;;;;;15.01;35.54;99052.38;5083919;28;8862;-85
2023/03/31 08:54:49;;;;;;;;;7.20;5.60;;;;;14.23;36.77;99061.19;5087024;28;9429;-82
2023/03/31 08:57:25;;;;;;;;;6.20;6.00;;;;;13.76;37.51;99066.69;5077528;28;8852;-83
2023/03/31 08:59:57;;;;;;;;;6.00;6.00;;;;;14.04;37.56;99069.91;5088727;28;8890;-83
2023/03/31 09:02:34;;;;;;;;;5.60;5.60;;;;;14.22;36.93;99055.03;5090555;28;8875;-81
2023/03/31 09:05:22;;;;;;;;;4.80;4.40;;;;;14.31;37.06;99056.41;5068164;28;8930;-81
2023/03/31 09:08:02;;;;;;;;;11.00;9.20;;;;;14.72;37.17;99044.91;5035821;28;8844;-82
2023/03/31 09:10:43;;;;;;;;;5.20;5.20;;;;;14.72;35.96;99031.69;5072969;28;8974;-81
2023/03/31 09:13:30;;;;;;;;;6.40;6.00;;;;;14.07;36.71;99045.13;5068514;28;8886;-80
2023/03/31 09:16:05;;;;;;;;;5.00;4.20;;;;;13.83;37.32;99036.50;5035308;28;8886;-79
2023/03/31 09:18:37;;;;;;;;;6.00;5.00;;;;;13.82;37.40;99026.84;5067064;28;8871;-80
2023/03/31 09:21:15;;;;;;;;;5.20;5.20;;;;;13.70;37.49;99021.13;5034081;28;8839;-80
2023/03/31 09:23:49;;;;;;;;;7.60;6.00;;;;;14.31;36.75;99010.63;5049963;28;8856;-79
2023/03/31 09:26:27;;;;;;;;;16.40;15.00;;;;;14.29;36.46;99000.13;5033682;28;8888;-79
2023/03/31 09:29:00;;;;;;;;;5.60;5.60;;;;;14.11;36.89;98996.53;5033781;28;8871;-80
2023/03/31 09:31:30;;;;;;;;;6.80;6.80;;;;;14.85;35.88;98999.31;5018506;28;8864;-78
2023/03/31 09:34:02;;;;;;;;;6.80;6.00;;;;;15.23;35.36;98990.47;5068531;28;8876;-80
2023/03/31 09:36:32;;;;;;;;;4.40;4.40;;;;;14.73;35.50;98988.44;5082225;28;8868;-79
2023/03/31 09:39:00;;;;;;;;;7.00;6.40;;;;;14.82;35.73;98986.22;5073002;28;8858;-78
2023/03/31 09:41:29;;;;;;;;;8.60;7.80;;;;;14.56;36.18;98986.56;5087374;28;8867;-80
2023/03/31 09:44:02;;;;;;;;;6.00;4.40;;;;;14.56;36.12;98986.56;5091515;28;8863;-78
2023/03/31 09:46:36;;;;;;;;;5.40;5.40;;;;;14.59;36.02;98981.13;5091135;28;8852;-79
2023/03/31 09:49:11;;;;;;;;;8.20;6.00;;;;;15.10;35.57;98978.75;5086955;28;8997;-84
2023/03/31 09:51:46;;;;;;;;;7.60;7.60;;;;;15.18;35.58;98976.59;5077461;28;8851;-78
2023/03/31 09:54:22;;;;;;;;;6.20;6.00;;;;;14.43;36.49;98976.56;5084876;28;8968;-81
2023/03/31 09:56:52;;;;;;;;;5.80;4.60;;;;;14.31;36.55;98985.03;5069981;28;8917;-82
2023/03/31 09:59:24;;;;;;;;;6.20;6.20;;;;;14.38;36.47;98967.97;5057617;28;8874;-81
2023/03/31 10:01:58;;;;;;;;;5.60;5.00;;;;;14.59;36.51;98965.28;5093263;28;8844;-80
2023/03/31 10:04:30;;;;;;;;;7.80;7.80;;;;;14.98;35.54;98966.97;5072478;28;8894;-80
2023/03/31 10:07:01;;;;;;;;;9.40;8.60;;;;;15.26;35.50;98953.22;5089701;28;8887;-80
2023/03/31 10:09:32;;;;;;;;;5.40;5.00;;;;;15.82;34.73;98952.16;5076363;28;8864;-80
2023/03/31 10:12:06;;;;;;;;;10.40;7.60;;;;;16.06;34.16;98948.28;5080228;28;8869;-80
2023/03/31 10:14:41;;;;;;;;;8.00;6.80;;;;;15.15;35.25;98948.47;5074753;28;8953;-77
2023/03/31 10:17:15;;;;;;;;;5.80;5.20;;;;;15.49;35.33;98948.56;5089186;28;8851;-75
2023/03/31 10:19:48;;;;;;;;;9.60;9.60;;;;;15.69;34.16;98935.19;5063614;28;8850;-78
2023/03/31 10:22:28;;;;;;;;;6.00;5.60;;;;;15.28;34.63;98932.81;5080098;28;8840;-78
2023/03/31 10:25:09;;;;;;;;;8.20;7.00;;;;;15.36;34.47;98929.78;5086494;28;8867;-77
2023/03/31 10:27:41;;;;;;;;;7.40;7.40;;;;;15.70;34.15;98912.19;5086766;28;8860;-77
2023/03/31 10:30:19;;;;;;;;;6.40;6.40;;;;;15.75;33.69;98921.59;5087949;28;8843;-78
2023/03/31 10:32:48;;;;;;;;;5.00;5.00;;;;;15.49;34.17;98904.41;5087457;28;8879;-78
2023/03/31 10:35:26;;;;;;;;;9.20;6.80;;;;;16.20;33.50;98898.03;5073205;28;8906;-78
2023/03/31 10:37:58;;;;;;;;;4.00;3.00;;;;;16.65;32.86;98899.13;5086988;28;9002;-77
2023/03/31 10:40:30;;;;;;;;;6.60;6.60;;;;;16.74;32.31;98893.28;5086576;28;9538;-77
2023/03/31 10:43:03;;;;;;;;;5.80;5.80;;;;;15.80;33.42;98893.09;5083009;28;8958;-77
2023/03/31 10:45:41;;;;;;;;;6.00;5.00;;;;;15.52;33.72;98895.44;5074030;28;8970;-78
2023/03/31 10:48:18;;;;;;;;;6.60;6.00;;;;;15.21;34.20;98884.63;5105464;27;8966;-78
2023/03/31 10:50:48;;;;;;;;;7.40;7.20;;;;;15.21;34.53;98887.28;5093135;28;9006;-77
2023/03/31 10:53:18;;;;;;;;;10.40;8.40;;;;;15.66;34.10;98879.69;5082234;28;8843;-79
2023/03/31 10:56:00;;;;;;;;;8.00;6.80;;;;;15.47;34.25;98877.13;5084395;28;8905;-77
2023/03/31 10:58:55;;;;;;;;;6.60;5.60;;;;;16.40;33.82;98870.44;5073487;28;8874;-77
2023/03/31 11:01:50;;;;;;;;;6.40;6.40;;;;;17.05;32.38;98856.16;5074701;28;8973;-79
2023/03/31 11:04:35;;;;;;;;;12.00;12.00;;;;;17.38;31.31;98847.97;5084520;28;8921;-80
2023/03/31 11:07:13;;;;;;;;;8.80;8.00;;;;;17.76;31.00;98829.72;5089189;28;8996;-80
2023/03/31 11:09:56;;;;;;;;;8.40;8.40;;;;;17.46;30.79;98820.97;5072102;28;8927;-78
2023/03/31 11:12:31;;;;;;;;;8.00;7.00;;;;;18.14;30.60;98822.97;5091835;28;9004;-81
2023/03/31 11:15:13;;;;;;;;;8.00;8.00;;;;;18.67;29.09;98805.28;5098515;28;8879;-70
2023/03/31 11:17:58;;;;;;;;;10.40;9.80;;;;;18.60;28.87;98795.16;5091887;28;8854;-79
2023/03/31 11:20:37;;;;;;;;;9.60;7.80;;;;;18.98;28.92;98786.44;5096903;28;9011;-82
2023/03/31 11:23:20;;;;;;;;;9.80;9.00;;;;;19.09;27.56;98778.56;5097793;28;8840;-79
2023/03/31 11:25:55;;;;;;;;;7.00;7.00;;;;;19.32;27.46;98768.97;5074108;28;9018;-79
2023/03/31 11:28:43;;;;;;;;;9.00;8.60;;;;;19.45;27.53;98756.50;5058269;28;8984;-80
2023/03/31 11:31:27;;;;;;;;;8.20;8.20;;;;;19.70;26.80;98752.13;5017078;28;8840;-80
2023/03/31 11:34:16;;;;;;;;;7.60;7.60;;;;;19.06;28.02;98744.13;5016520;28;8864;-78
2023/03/31 11:37:01;;;;;;;;;10.20;10.20;;;;;18.48;27.98;98738.28;5012850;28;8856;-79
2023/03/31 11:39:42;;;;;;;;;14.80;14.40;;;;;18.70;28.44;98746.50;4983349;28;9723;-82
2023/03/31 11:42:16;;;;;;;;;8.40;8.40;;;;;18.68;27.92;98734.25;4982263;28;9063;-80
2023/03/31 11:44:51;;;;;;;;;11.00;10.80;;;;;18.33;28.32;98727.69;5003687;28;8847;-84
2023/03/31 11:47:25;;;;;;;;;9.40;7.60;;;;;17.51;29.78;98724.09;5006832;28;8962;-79
2023/03/31 11:50:03;;;;;;;;;6.40;6.40;;;;;18.55;28.98;98718.25;4996568;28;8874;-80
2023/03/31 11:52:37;;;;;;;;;9.00;9.00;;;;;18.69;28.55;98715.53;5013336;28;8898;-82
2023/03/31 11:55:15;;;;;;;;;10.40;9.20;;;;;19.38;28.03;98707.25;4970018;28;9682;-78
2023/03/31 11:57:48;;;;;;;;;9.00;9.00;;;;;18.78;28.44;98697.22;5033785;28;8853;-79
2023/03/31 12:00:21;;;;;;;;;10.20;9.20;;;;;19.05;28.08;98687.34;5058609;28;9012;-80
2023/03/31 12:02:56;;;;;;;;;6.60;6.60;;;;;19.09;27.54;98675.53;5062835;28;8977;-83
2023/03/31 12:05:28;;;;;;;;;7.60;7.40;;;;;19.37;26.81;98670.91;5059746;28;8856;-78
2023/03/31 12:08:03;;;;;;;;;6.20;6.00;;;;;18.98;26.95;98671.91;5078438;28;8847;-83